Terminal Aerodrome Forecast
Issued by NWS Sterling, VA

Current Version | Previous Version | Text Only | Print | Product List | Glossary Off
Versions: 1 2 3 4 5 6 7 8 9 10 11 12 13 14 15 16 17 18 19 20 21 22 23 24 25 26 27

000
FTUS41 KLWX 302300 RRA
TAFIAD
TAF
KIAD 302347Z 3100/0106 17004KT P6SM BKN030
     FM310900 19006KT 5SM BR BKN130
     FM311300 20007KT P6SM BKN090
     FM311800 20010KT P6SM -SHRA VCTS BKN050CB
     FM312200 22007KT P6SM BKN050
     FM010100 VRB03KT P6SM OVC050=

USA.gov is the U.S. government's official web portal to all federal, state and local government web resources and services.